createdAt,value
2018-12-14T00:01:35.190Z,14.30
2018-12-14T00:04:01.917Z,14.75
2018-12-14T00:06:28.632Z,15.08
2018-12-14T00:08:55.275Z,15.30
2018-12-14T00:11:21.964Z,15.28
2018-12-14T00:13:48.636Z,17.35
2018-12-14T00:16:15.440Z,14.50
2018-12-14T00:18:42.085Z,13.25
2018-12-14T00:21:08.793Z,14.07
2018-12-14T00:23:35.467Z,14.18
2018-12-14T00:26:02.151Z,15.70
2018-12-14T00:28:28.813Z,14.05
2018-12-14T00:30:55.506Z,14.60
2018-12-14T00:33:22.207Z,14.53
2018-12-14T00:35:49.040Z,16.10
2018-12-14T00:38:16.048Z,14.00
2018-12-14T00:40:42.726Z,13.20
2018-12-14T00:43:09.407Z,15.15
2018-12-14T00:45:36.049Z,13.10
2018-12-14T00:48:02.735Z,13.98
2018-12-14T00:50:29.426Z,14.70
2018-12-14T00:52:56.239Z,14.87
2018-12-14T00:55:22.905Z,13.88
2018-12-14T00:57:49.585Z,16.55
2018-12-14T01:00:16.285Z,15.03
2018-12-14T01:02:42.988Z,13.32
2018-12-14T01:05:09.832Z,14.73
2018-12-14T01:07:36.468Z,15.13
2018-12-14T01:10:04.255Z,14.78
2018-12-14T01:12:30.928Z,14.05
2018-12-14T01:14:57.634Z,14.65
2018-12-14T01:17:24.379Z,14.53
2018-12-14T01:19:51.052Z,14.40
2018-12-14T01:22:17.956Z,16.23
2018-12-14T01:24:44.678Z,16.12
2018-12-14T01:27:11.351Z,16.45
2018-12-14T01:29:38.051Z,14.58
2018-12-14T01:32:04.805Z,15.35
2018-12-14T01:34:31.484Z,15.83
2018-12-14T01:36:58.129Z,14.70
2018-12-14T01:39:24.781Z,15.03
2018-12-14T01:41:51.584Z,16.45
2018-12-14T01:44:18.228Z,15.88
2018-12-14T01:46:45.017Z,13.68
2018-12-14T01:49:11.813Z,14.68
2018-12-14T01:51:39.144Z,14.70
2018-12-14T01:54:05.903Z,13.55
2018-12-14T01:56:32.679Z,13.32
2018-12-14T01:58:59.333Z,15.48
2018-12-14T02:01:26.004Z,13.58
2018-12-14T02:03:52.648Z,13.98
2018-12-14T02:06:19.340Z,14.85
2018-12-14T02:08:45.977Z,13.70
2018-12-14T02:11:12.686Z,13.53
2018-12-14T02:13:39.372Z,13.30
2018-12-14T02:16:06.080Z,15.65
2018-12-14T02:18:32.716Z,13.40
2018-12-14T02:20:59.392Z,14.80
2018-12-14T02:23:26.027Z,13.78
2018-12-14T02:25:52.704Z,16.35
2018-12-14T02:28:19.392Z,13.98
2018-12-14T02:30:46.671Z,14.75
2018-12-14T02:33:13.392Z,15.80
2018-12-14T02:35:40.048Z,13.85
2018-12-14T02:38:06.768Z,13.22
2018-12-14T02:40:33.428Z,13.83
2018-12-14T02:43:00.101Z,13.45
2018-12-14T02:45:26.747Z,13.68
2018-12-14T02:47:53.447Z,13.72
2018-12-14T02:50:20.149Z,14.58
2018-12-14T02:52:46.849Z,13.62
2018-12-14T02:55:13.501Z,13.03
2018-12-14T02:57:40.200Z,15.00
2018-12-14T03:00:08.272Z,14.78
2018-12-14T03:02:35.180Z,13.60
2018-12-14T03:05:02.933Z,13.90
2018-12-14T03:07:29.604Z,13.38
2018-12-14T03:09:56.308Z,14.05
2018-12-14T03:12:26.687Z,13.72
2018-12-14T03:14:51.683Z,13.40
2018-12-14T03:17:18.520Z,13.85
2018-12-14T03:19:45.381Z,13.05
2018-12-14T03:22:13.486Z,13.35
2018-12-14T03:24:40.389Z,13.38
2018-12-14T03:27:07.028Z,11.90
2018-12-14T03:29:33.713Z,12.80
2018-12-14T03:32:00.357Z,13.25
2018-12-14T03:34:27.081Z,12.78
2018-12-14T03:36:53.727Z,12.78
2018-12-14T03:39:20.672Z,12.50
2018-12-14T03:41:47.324Z,14.10
2018-12-14T03:44:14.009Z,13.58
2018-12-14T03:46:40.674Z,12.98
2018-12-14T03:49:07.310Z,12.82
2018-12-14T03:51:34.003Z,12.95
2018-12-14T03:54:00.646Z,12.43
2018-12-14T03:56:27.336Z,13.45
2018-12-14T03:58:53.972Z,14.05
2018-12-14T04:01:20.671Z,12.75
2018-12-14T04:03:47.335Z,12.03
2018-12-14T04:06:14.026Z,11.75
2018-12-14T04:08:40.672Z,12.93
2018-12-14T04:11:15.068Z,13.68
2018-12-14T04:13:41.748Z,12.07
2018-12-14T04:16:08.456Z,12.88
2018-12-14T04:18:35.129Z,14.53
2018-12-14T04:21:01.852Z,12.82
2018-12-14T04:23:28.502Z,12.80
2018-12-14T04:25:55.203Z,13.83
2018-12-14T04:28:22.038Z,13.10
2018-12-14T04:30:48.692Z,13.55
2018-12-14T04:33:16.248Z,13.48
2018-12-14T04:35:42.895Z,13.40
2018-12-14T04:38:09.556Z,14.18
2018-12-14T04:40:36.188Z,12.80
2018-12-14T04:43:02.867Z,13.08
2018-12-14T04:45:29.520Z,13.80
2018-12-14T04:47:56.732Z,12.63
2018-12-14T04:50:23.429Z,13.35
2018-12-14T04:52:50.090Z,13.80
2018-12-14T04:55:16.793Z,13.13
2018-12-14T04:57:43.431Z,12.47
2018-12-14T05:00:10.283Z,13.55
2018-12-14T05:02:36.958Z,13.48
2018-12-14T05:05:04.417Z,14.20
2018-12-14T05:07:31.076Z,13.03
2018-12-14T05:09:57.751Z,12.78
2018-12-14T05:12:24.387Z,12.60
2018-12-14T05:14:51.340Z,12.20
2018-12-14T05:17:18.093Z,12.50
2018-12-14T05:19:44.828Z,13.03
2018-12-14T05:22:11.544Z,14.10
2018-12-14T05:24:38.229Z,13.13
2018-12-14T05:27:05.285Z,12.53
2018-12-14T05:29:31.938Z,13.32
2018-12-14T05:31:58.629Z,12.90
2018-12-14T05:34:25.342Z,12.40
2018-12-14T05:36:52.089Z,12.40
2018-12-14T05:39:18.733Z,14.05
2018-12-14T05:41:45.455Z,14.30
2018-12-14T05:44:12.100Z,13.58
2018-12-14T05:46:38.777Z,13.98
2018-12-14T05:49:05.438Z,12.98
2018-12-14T05:51:32.185Z,14.28
2018-12-14T05:53:58.839Z,13.48
2018-12-14T05:56:26.677Z,13.30
2018-12-14T05:58:53.501Z,13.65
2018-12-14T06:01:20.153Z,13.45
2018-12-14T06:03:46.856Z,13.58
2018-12-14T06:06:13.511Z,12.40
2018-12-14T06:08:40.255Z,13.58
2018-12-14T06:11:07.000Z,13.80
2018-12-14T06:13:33.725Z,14.03
2018-12-14T06:16:00.371Z,13.50
2018-12-14T06:18:27.044Z,12.78
2018-12-14T06:20:53.680Z,12.82
2018-12-14T06:23:20.435Z,14.20
2018-12-14T06:25:48.391Z,14.40
2018-12-14T06:28:15.054Z,14.28
2018-12-14T06:30:41.745Z,13.65
2018-12-14T06:33:08.385Z,12.75
2018-12-14T06:35:35.060Z,14.75
2018-12-14T06:38:01.695Z,14.70
2018-12-14T06:40:29.188Z,13.43
2018-12-14T06:42:55.838Z,13.22
2018-12-14T06:45:22.620Z,13.62
2018-12-14T06:47:49.264Z,13.32
2018-12-14T06:50:15.952Z,13.00
2018-12-14T06:52:42.600Z,13.32
2018-12-14T06:55:09.272Z,12.98
2018-12-14T06:57:35.913Z,12.98
2018-12-14T07:00:03.568Z,12.50
2018-12-14T07:02:30.640Z,12.63
2018-12-14T07:04:57.280Z,11.38
2018-12-14T07:07:23.956Z,12.20
2018-12-14T07:09:50.652Z,11.05
2018-12-14T07:12:17.312Z,11.78
2018-12-14T07:14:44.000Z,12.15
2018-12-14T07:17:10.699Z,12.85
2018-12-14T07:19:37.336Z,11.90
2018-12-14T07:22:04.947Z,12.40
2018-12-14T07:24:31.659Z,12.65
2018-12-14T07:26:58.346Z,12.25
2018-12-14T07:29:25.145Z,14.20
2018-12-14T07:31:51.828Z,12.90
2018-12-14T07:34:18.485Z,13.18
2018-12-14T07:36:45.439Z,14.70
2018-12-14T07:39:12.120Z,14.05
2018-12-14T07:41:38.754Z,12.65
2018-12-14T07:44:05.436Z,11.65
2018-12-14T07:46:34.033Z,11.35
2018-12-14T07:49:00.666Z,11.85
2018-12-14T07:51:27.336Z,11.43
2018-12-14T07:53:54.020Z,12.20
2018-12-14T07:56:20.660Z,12.50
2018-12-14T07:58:47.495Z,11.73
2018-12-14T08:01:14.541Z,12.70
2018-12-14T08:03:41.177Z,12.37
2018-12-14T08:06:08.084Z,11.90
2018-12-14T08:08:34.773Z,12.80
2018-12-14T08:11:01.419Z,12.80
2018-12-14T08:13:34.593Z,13.00
2018-12-14T08:15:56.845Z,13.30
2018-12-14T08:18:23.480Z,11.35
2018-12-14T08:20:50.157Z,12.88
2018-12-14T08:23:16.852Z,11.40
2018-12-14T08:25:50.352Z,11.57
2018-12-14T08:28:17.011Z,13.55
2018-12-14T08:30:43.640Z,11.97
2018-12-14T08:33:10.327Z,12.53
2018-12-14T08:35:37.012Z,13.58
2018-12-14T08:38:10.456Z,13.00
2018-12-14T08:40:37.118Z,12.85
2018-12-14T08:43:03.754Z,12.37
2018-12-14T08:45:30.445Z,12.37
2018-12-14T08:47:57.364Z,11.50
2018-12-14T08:50:24.012Z,13.70
2018-12-14T08:52:50.675Z,13.00
2018-12-14T08:55:17.343Z,11.68
2018-12-14T08:57:43.979Z,12.93
2018-12-14T09:00:10.699Z,12.18
2018-12-14T09:02:37.367Z,12.68
2018-12-14T09:05:05.191Z,11.65
2018-12-14T09:07:31.849Z,11.40
2018-12-14T09:09:58.521Z,13.22
2018-12-14T09:12:25.168Z,12.35
2018-12-14T09:14:51.848Z,11.15
2018-12-14T09:17:18.543Z,12.60
2018-12-14T09:19:45.188Z,12.43
2018-12-14T09:22:11.964Z,12.05
2018-12-14T09:24:38.680Z,11.00
2018-12-14T09:27:05.331Z,12.20
2018-12-14T09:29:32.025Z,13.08
2018-12-14T09:31:58.708Z,12.70
2018-12-14T09:34:25.351Z,13.20
2018-12-14T09:36:52.032Z,13.60
2018-12-14T09:39:18.715Z,13.45
2018-12-14T09:41:45.352Z,10.72
2018-12-14T09:44:12.024Z,11.22
2018-12-14T09:46:38.697Z,11.50
2018-12-14T09:49:05.335Z,11.65
2018-12-14T09:51:32.024Z,11.30
2018-12-14T09:53:58.696Z,11.78
2018-12-14T09:56:25.328Z,10.63
2018-12-14T09:58:52.043Z,11.20
2018-12-14T10:01:18.680Z,12.20
2018-12-14T10:03:45.674Z,12.37
2018-12-14T10:06:15.632Z,12.37
2018-12-14T10:08:41.063Z,11.88
2018-12-14T10:11:08.657Z,11.50
2018-12-14T10:13:35.379Z,12.28
2018-12-14T10:16:03.413Z,12.47
2018-12-14T10:18:30.200Z,14.60
2018-12-14T10:20:56.868Z,13.35
2018-12-14T10:23:23.985Z,14.20
2018-12-14T10:25:51.112Z,12.30
2018-12-14T10:28:24.824Z,12.20
2018-12-14T10:30:51.512Z,13.95
2018-12-14T10:33:18.139Z,12.03
2018-12-14T10:35:44.812Z,11.65
2018-12-14T10:38:11.487Z,13.35
2018-12-14T10:40:38.594Z,10.63
2018-12-14T10:43:05.375Z,10.78
2018-12-14T10:45:32.240Z,10.82
2018-12-14T10:47:58.880Z,12.47
2018-12-14T10:50:25.557Z,10.43
2018-12-14T10:52:52.223Z,12.13
2018-12-14T10:55:18.872Z,10.40
2018-12-14T10:57:45.796Z,10.60
2018-12-14T11:00:15.604Z,10.35
2018-12-14T11:02:42.248Z,12.33
2018-12-14T11:05:08.932Z,10.75
2018-12-14T11:07:35.613Z,10.48
2018-12-14T11:10:04.236Z,11.68
2018-12-14T11:12:30.897Z,10.38
2018-12-14T11:14:57.567Z,11.05
2018-12-14T11:17:24.343Z,11.85
2018-12-14T11:19:51.009Z,10.93
2018-12-14T11:22:17.684Z,11.93
2018-12-14T11:24:44.347Z,13.38
2018-12-14T11:27:12.322Z,12.20
2018-12-14T11:29:39.236Z,10.75
2018-12-14T11:32:05.888Z,10.28
2018-12-14T11:34:32.550Z,10.32
2018-12-14T11:36:59.227Z,9.95
2018-12-14T11:39:25.871Z,10.13
2018-12-14T11:41:52.667Z,9.63
2018-12-14T11:44:20.772Z,10.80
2018-12-14T11:46:48.079Z,11.70
2018-12-14T11:49:14.756Z,12.47
2018-12-14T11:51:41.424Z,10.75
2018-12-14T11:54:08.057Z,10.20
2018-12-14T11:56:34.728Z,10.48
2018-12-14T11:59:01.416Z,11.65
2018-12-14T12:01:28.555Z,10.55
2018-12-14T12:03:55.221Z,11.57
2018-12-14T12:06:21.897Z,11.65
2018-12-14T12:08:48.528Z,11.38
2018-12-14T12:11:15.196Z,11.12
2018-12-14T12:13:41.865Z,10.80
2018-12-14T12:16:08.496Z,11.18
2018-12-14T12:18:35.256Z,10.80
2018-12-14T12:21:01.935Z,11.73
2018-12-14T12:23:28.601Z,9.38
2018-12-14T12:28:28.796Z,10.65
2018-12-14T12:30:55.508Z,10.58
2018-12-14T12:33:22.370Z,14.03
2018-12-14T12:35:49.082Z,16.12
2018-12-14T12:38:15.787Z,33.45
2018-12-14T12:40:42.467Z,12.70
2018-12-14T12:43:09.100Z,19.87
2018-12-14T12:45:35.773Z,18.60
2018-12-14T12:48:02.451Z,14.33
2018-12-14T12:50:30.278Z,11.43
2018-12-14T12:52:57.148Z,11.22
2018-12-14T12:55:23.835Z,11.35
2018-12-14T12:57:50.479Z,10.30
2018-12-14T13:00:24.024Z,9.40
2018-12-14T13:02:50.866Z,9.98
2018-12-14T13:05:17.480Z,10.38
2018-12-14T13:07:44.155Z,10.23
2018-12-14T13:10:11.094Z,9.48
2018-12-14T13:12:39.418Z,9.70
2018-12-14T13:15:09.097Z,9.03
2018-12-14T13:17:37.576Z,10.72
2018-12-14T13:20:11.352Z,11.63
2018-12-14T13:22:38.024Z,10.70
2018-12-14T13:25:04.676Z,10.53
2018-12-14T13:27:31.374Z,9.90
2018-12-14T13:30:05.039Z,9.18
2018-12-14T13:32:31.712Z,8.48
2018-12-14T13:34:58.375Z,10.63
2018-12-14T13:37:25.024Z,8.48
2018-12-14T13:39:51.753Z,9.60
2018-12-14T13:42:18.424Z,8.43
2018-12-14T13:44:46.629Z,8.65
2018-12-14T13:47:13.596Z,9.13
2018-12-14T13:49:40.298Z,9.05
2018-12-14T13:52:06.939Z,9.83
2018-12-14T13:54:33.612Z,9.38
2018-12-14T13:57:00.282Z,9.40
2018-12-14T13:59:26.916Z,8.15
2018-12-14T14:01:53.596Z,9.45
2018-12-14T14:04:20.289Z,9.55
2018-12-14T14:06:46.949Z,8.88
2018-12-14T14:09:13.615Z,8.40
2018-12-14T14:11:40.280Z,9.45
2018-12-14T14:14:06.980Z,9.83
2018-12-14T14:16:33.682Z,9.13
2018-12-14T14:19:00.382Z,8.58
2018-12-14T14:21:27.056Z,10.15
2018-12-14T14:23:53.732Z,11.60
2018-12-14T14:26:20.425Z,9.60
2018-12-14T14:28:47.153Z,9.68
2018-12-14T14:31:13.944Z,10.15
2018-12-14T14:33:40.726Z,10.53
2018-12-14T14:36:07.433Z,10.68
2018-12-14T14:38:34.117Z,8.88
2018-12-14T14:41:00.830Z,10.55
2018-12-14T14:43:27.472Z,9.55
2018-12-14T14:45:54.152Z,10.40
2018-12-14T14:48:20.827Z,12.00
2018-12-14T14:50:47.472Z,9.78
2018-12-14T14:53:14.148Z,10.05
2018-12-14T14:55:40.815Z,9.33
2018-12-14T14:58:07.465Z,10.15
2018-12-14T15:00:34.317Z,9.10
2018-12-14T15:03:01.083Z,10.10
2018-12-14T15:05:27.731Z,11.33
2018-12-14T15:07:54.441Z,10.32
2018-12-14T15:10:21.192Z,9.48
2018-12-14T15:12:47.872Z,9.98
2018-12-14T15:15:14.559Z,10.75
2018-12-14T15:17:41.247Z,10.35
2018-12-14T15:20:07.957Z,12.95
2018-12-14T15:22:34.623Z,12.35
2018-12-14T15:25:01.364Z,11.83
2018-12-14T15:27:28.053Z,9.48
2018-12-14T15:29:54.720Z,12.60
2018-12-14T15:32:21.552Z,11.30
2018-12-14T15:34:48.252Z,11.83
2018-12-14T15:37:14.951Z,9.65
2018-12-14T15:39:41.620Z,10.58
2018-12-14T15:42:08.292Z,11.00
2018-12-14T15:44:34.949Z,10.43
2018-12-14T15:47:01.636Z,11.28
2018-12-14T15:49:28.308Z,11.30
2018-12-14T15:51:54.953Z,9.65
2018-12-14T15:54:21.682Z,10.50
2018-12-14T15:56:48.389Z,10.85
2018-12-14T15:59:15.182Z,11.35
2018-12-14T16:01:42.004Z,11.08
2018-12-14T16:04:08.679Z,11.03
2018-12-14T16:06:35.357Z,10.93
2018-12-14T16:09:02.107Z,10.35
2018-12-14T16:11:28.819Z,10.13
2018-12-14T16:13:55.830Z,11.40
2018-12-14T16:16:29.441Z,11.30
2018-12-14T16:18:56.193Z,10.38
2018-12-14T16:21:22.956Z,11.03
2018-12-14T16:23:49.624Z,11.05
2018-12-14T16:26:16.406Z,10.93
2018-12-14T16:28:43.105Z,10.45
2018-12-14T16:31:09.817Z,11.35
2018-12-14T16:33:37.219Z,11.50
2018-12-14T16:36:04.492Z,10.38
2018-12-14T16:38:32.040Z,9.18
2018-12-14T16:40:58.723Z,11.53
2018-12-14T16:43:25.513Z,11.80
2018-12-14T16:45:52.297Z,10.98
2018-12-14T16:48:19.001Z,11.75
2018-12-14T16:50:45.648Z,12.50
2018-12-14T16:53:12.340Z,13.13
2018-12-14T16:55:39.019Z,12.90
2018-12-14T16:58:05.717Z,12.20
2018-12-14T17:00:32.405Z,13.43
2018-12-14T17:02:59.130Z,11.93
2018-12-14T17:05:25.896Z,10.98
2018-12-14T17:07:52.620Z,11.95
2018-12-14T17:10:19.393Z,11.85
2018-12-14T17:12:46.082Z,12.25
2018-12-14T17:15:12.842Z,11.68
2018-12-14T17:17:39.591Z,12.70
2018-12-14T17:20:06.608Z,12.40
2018-12-14T17:22:33.312Z,11.78
2018-12-14T17:25:00.055Z,10.60
2018-12-14T17:27:26.862Z,11.65
2018-12-14T17:29:53.541Z,16.32
2018-12-14T17:32:20.232Z,20.60
2018-12-14T17:34:47.444Z,12.28
2018-12-14T17:37:14.132Z,12.10
2018-12-14T17:39:40.801Z,10.40
2018-12-14T17:42:08.308Z,11.73
2018-12-14T17:44:34.957Z,11.53
2018-12-14T17:47:02.109Z,11.53
2018-12-14T17:49:28.820Z,11.48
2018-12-14T17:51:55.572Z,12.33
2018-12-14T17:54:22.284Z,9.75
2018-12-14T17:56:48.972Z,11.78
2018-12-14T17:59:15.651Z,10.78
2018-12-14T18:01:42.376Z,12.35
2018-12-14T18:04:09.249Z,11.43
2018-12-14T18:06:35.911Z,12.03
2018-12-14T18:09:04.113Z,11.95
2018-12-14T18:11:30.791Z,11.85
2018-12-14T18:13:57.448Z,10.93
2018-12-14T18:16:24.500Z,12.50
2018-12-14T18:18:51.173Z,12.63
2018-12-14T18:21:17.870Z,12.40
2018-12-14T18:23:44.553Z,13.03
2018-12-14T18:26:11.244Z,12.10
2018-12-14T18:28:37.897Z,10.65
2018-12-14T18:31:04.621Z,10.95
2018-12-14T18:33:31.305Z,13.15
2018-12-14T18:35:57.951Z,12.10
2018-12-14T18:38:24.673Z,11.73
2018-12-14T18:40:51.378Z,12.15
2018-12-14T18:43:18.032Z,12.53
2018-12-14T18:45:44.709Z,12.15
2018-12-14T18:48:11.393Z,11.05
2018-12-14T18:50:38.126Z,11.10
2018-12-14T18:53:04.807Z,11.12
2018-12-14T18:55:31.500Z,12.80
2018-12-14T18:57:58.141Z,11.88
2018-12-14T19:00:24.824Z,11.03
2018-12-14T19:02:51.499Z,11.83
2018-12-14T19:05:18.168Z,11.95
2018-12-14T19:07:44.853Z,11.70
2018-12-14T19:10:11.592Z,11.00
2018-12-14T19:12:38.480Z,10.60
2018-12-14T19:15:05.285Z,11.70
2018-12-14T19:17:31.963Z,11.38
2018-12-14T19:19:58.613Z,11.15
2018-12-14T19:22:25.309Z,11.05
2018-12-14T19:24:52.014Z,11.85
2018-12-14T19:27:25.632Z,11.20
2018-12-14T19:29:52.320Z,10.85
2018-12-14T19:32:19.002Z,10.72
2018-12-14T19:34:45.851Z,11.33
2018-12-14T19:37:12.649Z,12.68
2018-12-14T19:39:39.698Z,10.98
2018-12-14T19:42:06.384Z,10.25
2018-12-14T19:44:33.089Z,12.10
2018-12-14T19:46:59.760Z,11.25
2018-12-14T19:49:26.503Z,11.43
2018-12-14T19:51:53.580Z,12.68
2018-12-14T19:54:20.859Z,12.85
2018-12-14T19:56:47.565Z,11.35
2018-12-14T19:59:14.260Z,10.98
2018-12-14T20:01:40.913Z,11.75
2018-12-14T20:04:08.989Z,11.95
2018-12-14T20:06:35.841Z,12.20
2018-12-14T20:09:04.302Z,11.95
2018-12-14T20:11:31.107Z,11.40
2018-12-14T20:13:57.796Z,10.75
2018-12-14T20:16:31.460Z,11.75
2018-12-14T20:18:58.124Z,10.23
2018-12-14T20:21:26.872Z,9.85
2018-12-14T20:23:54.457Z,10.32
2018-12-14T20:26:23.058Z,10.75
2018-12-14T20:28:50.056Z,10.75
2018-12-14T20:31:17.147Z,11.08
2018-12-14T20:33:43.849Z,11.00
2018-12-14T20:36:12.466Z,11.60
2018-12-14T20:38:39.208Z,10.55
2018-12-14T20:41:05.877Z,10.70
2018-12-14T20:43:32.601Z,11.00
2018-12-14T20:46:00.255Z,9.85
2018-12-14T20:48:27.325Z,10.75
2018-12-14T20:50:53.983Z,11.18
2018-12-14T20:53:21.658Z,10.60
2018-12-14T20:55:48.407Z,10.38
2018-12-14T20:58:15.085Z,10.15
2018-12-14T21:00:48.825Z,12.05
2018-12-14T21:03:15.511Z,11.38
2018-12-14T21:05:42.226Z,10.58
2018-12-14T21:08:09.378Z,11.33
2018-12-14T21:10:36.103Z,9.60
2018-12-14T21:13:02.796Z,10.63
2018-12-14T21:15:29.498Z,10.90
2018-12-14T21:17:56.640Z,11.57
2018-12-14T21:20:24.251Z,11.18
2018-12-14T21:22:51.730Z,11.03
2018-12-14T21:25:19.361Z,10.18
2018-12-14T21:27:46.477Z,11.73
2018-12-14T21:30:13.156Z,11.35
2018-12-14T21:32:39.833Z,10.53
2018-12-14T21:35:06.539Z,11.60
2018-12-14T21:37:40.136Z,10.00
2018-12-14T21:40:07.429Z,10.10
2018-12-14T21:42:34.408Z,10.28
2018-12-14T21:45:02.013Z,10.88
2018-12-14T21:47:28.696Z,10.82
2018-12-14T21:49:56.040Z,12.07
2018-12-14T21:52:22.712Z,10.85
2018-12-14T21:54:49.401Z,12.15
2018-12-14T21:57:16.034Z,10.75
2018-12-14T21:59:42.850Z,11.10
2018-12-14T22:02:09.895Z,10.30
2018-12-14T22:04:36.605Z,11.83
2018-12-14T22:07:03.388Z,11.68
2018-12-14T22:09:30.040Z,10.10
2018-12-14T22:11:56.727Z,12.30
2018-12-14T22:14:23.573Z,12.50
2018-12-14T22:16:50.228Z,11.75
2018-12-14T22:19:16.932Z,12.73
2018-12-14T22:21:43.614Z,12.18
2018-12-14T22:24:10.292Z,11.65
2018-12-14T22:26:37.080Z,11.38
2018-12-14T22:29:03.859Z,10.63
2018-12-14T22:31:30.508Z,12.13
2018-12-14T22:33:57.172Z,10.80
2018-12-14T22:36:23.864Z,10.93
2018-12-14T22:38:50.577Z,10.72
2018-12-14T22:41:17.382Z,12.20
2018-12-14T22:43:44.135Z,10.80
2018-12-14T22:46:10.856Z,11.38
2018-12-14T22:48:37.543Z,12.40
2018-12-14T22:51:04.209Z,12.95
2018-12-14T22:53:30.863Z,11.88
2018-12-14T22:55:57.564Z,11.93
2018-12-14T22:58:24.255Z,11.00
2018-12-14T23:00:52.385Z,12.47
2018-12-14T23:03:26.131Z,11.90
2018-12-14T23:05:52.780Z,10.65
2018-12-14T23:08:19.453Z,11.35
2018-12-14T23:10:46.119Z,11.50
2018-12-14T23:13:13.162Z,11.30
2018-12-14T23:15:39.848Z,12.37
2018-12-14T23:18:06.476Z,11.70
2018-12-14T23:20:33.156Z,9.58
2018-12-14T23:22:59.812Z,10.60
2018-12-14T23:25:26.481Z,10.58
2018-12-14T23:27:53.340Z,10.15
2018-12-14T23:30:20.044Z,10.85
2018-12-14T23:32:46.700Z,10.98
2018-12-14T23:35:13.304Z,11.20
2018-12-14T23:37:39.964Z,10.82
2018-12-14T23:40:06.664Z,11.28
2018-12-14T23:42:33.356Z,10.85
2018-12-14T23:44:59.979Z,11.70
2018-12-14T23:47:33.573Z,11.08
2018-12-14T23:50:00.196Z,11.60
2018-12-14T23:52:26.884Z,12.13
2018-12-14T23:54:53.516Z,12.13
2018-12-14T23:57:20.208Z,10.30
2018-12-14T23:59:46.860Z,11.18
